Time,TemperatureF,DewpointF,PressureIn,WindDirection,WindDirectionDegrees,WindSpeedMPH,WindSpeedGustMPH,Humidity,HourlyPrecipIn,Conditions,Clouds,dailyrainin,SoftwareType,DateUTC
2013-04-12 07:17:00,37.9,34.1,29.65,WSW,241,5.0,5.0,86,0.00,,,0.00,Wunderground v.1.15,2013-04-12 12:17:00,
2013-04-12 07:19:00,37.9,34.1,29.65,South,189,5.0,6.0,86,0.00,,,0.00,Wunderground v.1.15,2013-04-12 12:19:00,
2013-04-12 07:21:00,37.9,34.1,29.65,WSW,238,5.0,8.0,86,0.00,,,0.00,Wunderground v.1.15,2013-04-12 12:21:00,
2013-04-12 07:22:00,38.0,34.2,29.65,SW,227,5.0,8.0,86,0.00,,,0.00,Wunderground v.1.15,2013-04-12 12:22:00,
2013-04-12 07:28:00,38.0,34.2,29.65,SSW,208,6.0,7.0,86,0.00,,,0.00,Wunderground v.1.15,2013-04-12 12:28:00,
2013-04-12 07:34:00,38.1,34.3,29.66,SW,229,6.0,8.0,86,0.00,,,0.00,Wunderground v.1.15,2013-04-12 12:34:00,
2013-04-12 07:40:00,38.2,34.7,29.66,SW,233,7.0,7.0,87,0.00,,,0.00,Wunderground v.1.15,2013-04-12 12:40:00,
2013-04-12 07:45:00,38.2,34.7,29.66,WSW,238,6.0,8.0,87,0.00,,,0.00,Wunderground v.1.15,2013-04-12 12:45:00,
2013-04-12 07:51:00,38.3,34.5,29.66,SW,234,7.0,10.0,86,0.00,,,0.00,Wunderground v.1.15,2013-04-12 12:51:00,
2013-04-12 07:56:00,38.3,34.5,29.66,SW,227,6.0,10.0,86,0.00,,,0.00,Wunderground v.1.15,2013-04-12 12:56:00,
2013-04-12 08:02:00,38.4,34.9,29.66,SW,235,6.0,11.0,87,0.00,,,0.00,Wunderground v.1.15,2013-04-12 13:02:00,
2013-04-12 08:08:00,38.4,34.9,29.66,SW,220,6.0,11.0,87,0.00,,,0.00,Wunderground v.1.15,2013-04-12 13:08:00,
2013-04-12 08:13:00,38.5,34.7,29.66,SW,229,6.0,7.0,86,0.00,,,0.00,Wunderground v.1.15,2013-04-12 13:13:00,
2013-04-12 08:19:00,38.6,35.1,29.66,WSW,248,6.0,7.0,87,0.00,,,0.00,Wunderground v.1.15,2013-04-12 13:19:00,
2013-04-12 08:24:00,38.6,34.8,29.66,WSW,241,6.0,9.0,86,0.00,,,0.00,Wunderground v.1.15,2013-04-12 13:24:00,
2013-04-12 08:30:00,38.7,35.2,29.66,SW,230,6.0,9.0,87,0.00,,,0.00,Wunderground v.1.15,2013-04-12 13:30:00,
2013-04-12 08:36:00,38.8,35.3,29.66,SW,225,6.0,9.0,87,0.00,,,0.00,Wunderground v.1.15,2013-04-12 13:36:00,
2013-04-12 08:42:00,38.9,35.1,29.66,SSW,211,7.0,8.0,86,0.00,,,0.00,Wunderground v.1.15,2013-04-12 13:42:00,
2013-04-12 08:48:00,39.0,35.2,29.66,WSW,250,6.0,9.0,86,0.00,,,0.00,Wunderground v.1.15,2013-04-12 13:48:00,
2013-04-12 08:54:00,39.1,35.3,29.66,SW,220,7.0,9.0,86,0.00,,,0.00,Wunderground v.1.15,2013-04-12 13:54:00,
2013-04-12 09:00:00,39.2,35.4,29.66,WSW,253,8.0,8.0,86,0.00,,,0.00,Wunderground v.1.15,2013-04-12 14:00:00,
2013-04-12 09:05:00,39.3,35.5,29.66,WSW,238,7.0,8.0,86,0.00,,,0.00,Wunderground v.1.15,2013-04-12 14:05:00,
2013-04-12 09:10:00,39.5,35.7,29.66,SW,233,7.0,8.0,86,0.00,,,0.00,Wunderground v.1.15,2013-04-12 14:10:00,
2013-04-12 09:16:00,39.6,35.8,29.66,WSW,245,7.0,11.0,86,0.00,,,0.00,Wunderground v.1.15,2013-04-12 14:16:00,
2013-04-12 09:22:00,39.8,36.0,29.66,WSW,257,7.0,15.0,86,0.00,,,0.00,Wunderground v.1.15,2013-04-12 14:22:00,
2013-04-12 09:28:00,39.0,35.2,29.66,West,277,9.0,15.0,86,0.00,,,0.00,Wunderground v.1.15,2013-04-12 14:28:00,
2013-04-12 09:33:00,38.9,35.4,29.66,West,259,8.0,12.0,87,0.00,,,0.00,Wunderground v.1.15,2013-04-12 14:33:00,
2013-04-12 09:38:00,39.1,35.8,29.66,WSW,248,7.0,12.0,88,0.00,,,0.00,Wunderground v.1.15,2013-04-12 14:38:00,
2013-04-12 09:43:00,39.5,36.2,29.66,SW,225,7.0,8.0,88,0.00,,,0.00,Wunderground v.1.15,2013-04-12 14:43:00,
2013-04-12 09:49:00,39.7,36.1,29.66,WSW,241,7.0,12.0,87,0.00,,,0.00,Wunderground v.1.15,2013-04-12 14:49:00,
2013-04-12 09:55:00,39.8,36.0,29.66,SW,221,9.0,13.0,86,0.00,,,0.00,Wunderground v.1.15,2013-04-12 14:55:00,
2013-04-12 10:01:00,40.3,36.4,29.66,WSW,240,8.0,9.0,86,0.00,,,0.00,Wunderground v.1.15,2013-04-12 15:01:00,
2013-04-12 10:06:00,41.0,37.4,29.66,West,261,7.0,12.0,87,0.00,,,0.00,Wunderground v.1.15,2013-04-12 15:06:00,
2013-04-12 10:12:00,41.1,37.2,29.67,SW,236,7.0,13.0,86,0.00,,,0.00,Wunderground v.1.15,2013-04-12 15:12:00,
2013-04-12 10:17:00,40.9,36.7,29.67,WNW,284,8.0,13.0,85,0.00,,,0.00,Wunderground v.1.15,2013-04-12 15:17:00,
2013-04-12 10:23:00,40.5,36.3,29.67,SW,234,9.0,9.0,85,0.00,,,0.00,Wunderground v.1.15,2013-04-12 15:23:00,
2013-04-12 10:29:00,40.2,36.3,29.67,SW,219,10.0,19.0,86,0.00,,,0.00,Wunderground v.1.15,2013-04-12 15:29:00,
2013-04-12 10:35:00,40.4,36.5,29.67,WSW,254,10.0,14.0,86,0.00,,,0.01,Wunderground v.1.15,2013-04-12 15:35:00,
2013-04-12 10:41:00,40.5,36.6,29.68,WSW,238,9.0,12.0,86,0.00,,,0.01,Wunderground v.1.15,2013-04-12 15:41:00,
2013-04-12 10:47:00,40.7,37.1,29.68,WSW,243,8.0,17.0,87,0.00,,,0.01,Wunderground v.1.15,2013-04-12 15:47:00,
2013-04-12 10:53:00,40.9,37.0,29.68,WNW,286,9.0,10.0,86,0.00,,,0.01,Wunderground v.1.15,2013-04-12 15:53:00,
2013-04-12 10:58:00,40.8,36.3,29.68,SW,235,9.0,11.0,84,0.00,,,0.01,Wunderground v.1.15,2013-04-12 15:58:00,
2013-04-12 11:04:00,40.8,36.3,29.69,SW,220,10.0,15.0,84,0.00,,,0.01,Wunderground v.1.15,2013-04-12 16:04:00,
2013-04-12 11:09:00,40.8,36.3,29.69,West,262,9.0,15.0,84,0.00,,,0.01,Wunderground v.1.15,2013-04-12 16:09:00,
2013-04-12 11:14:00,40.8,36.3,29.69,WSW,257,8.0,12.0,84,0.00,,,0.01,Wunderground v.1.15,2013-04-12 16:14:00,
2013-04-12 11:19:00,40.8,36.6,29.69,West,261,8.0,13.0,85,0.00,,,0.01,Wunderground v.1.15,2013-04-12 16:19:00,
2013-04-12 11:25:00,40.9,36.1,29.69,WSW,253,9.0,15.0,83,0.00,,,0.01,Wunderground v.1.15,2013-04-12 16:25:00,
2013-04-12 11:31:00,40.7,35.9,29.69,SW,227,8.0,9.0,83,0.00,,,0.01,Wunderground v.1.15,2013-04-12 16:31:00,
2013-04-12 11:36:00,40.7,36.5,29.69,WSW,257,8.0,9.0,85,0.00,,,0.01,Wunderground v.1.15,2013-04-12 16:36:00,
2013-04-12 11:42:00,41.1,36.3,29.69,SW,230,9.0,12.0,83,0.00,,,0.01,Wunderground v.1.15,2013-04-12 16:42:00,
2013-04-12 11:48:00,41.4,36.6,29.69,WSW,258,10.0,14.0,83,0.00,,,0.01,Wunderground v.1.15,2013-04-12 16:48:00,
2013-04-12 11:53:00,42.0,36.9,29.70,WNW,290,9.0,10.0,82,0.00,,,0.01,Wunderground v.1.15,2013-04-12 16:53:00,
2013-04-12 11:58:00,42.2,37.1,29.70,WSW,242,8.0,10.0,82,0.00,,,0.01,Wunderground v.1.15,2013-04-12 16:58:00,
2013-04-12 12:04:00,41.8,36.7,29.70,West,267,8.0,9.0,82,0.00,,,0.01,Wunderground v.1.15,2013-04-12 17:04:00,
2013-04-12 12:10:00,41.8,36.7,29.70,WSW,244,9.0,9.0,82,0.00,,,0.01,Wunderground v.1.15,2013-04-12 17:10:00,
2013-04-12 12:16:00,42.1,37.3,29.70,WSW,248,8.0,14.0,83,0.00,,,0.01,Wunderground v.1.15,2013-04-12 17:16:00,
2013-04-12 12:22:00,42.0,37.2,29.70,West,269,8.0,15.0,83,0.00,,,0.01,Wunderground v.1.15,2013-04-12 17:22:00,
2013-04-12 12:27:00,42.2,37.7,29.70,West,267,8.0,15.0,84,0.00,,,0.01,Wunderground v.1.15,2013-04-12 17:27:00,
2013-04-12 12:33:00,42.4,37.3,29.70,NW,304,8.0,11.0,82,0.00,,,0.01,Wunderground v.1.15,2013-04-12 17:33:00,
2013-04-12 12:39:00,42.5,37.4,29.70,West,269,9.0,11.0,82,0.00,,,0.01,Wunderground v.1.15,2013-04-12 17:39:00,
2013-04-12 12:44:00,41.4,37.8,29.71,West,261,9.0,11.0,87,0.00,,,0.01,Wunderground v.1.15,2013-04-12 17:44:00,
2013-04-12 12:50:00,41.3,38.0,29.70,WSW,246,9.0,9.0,88,0.00,,,0.01,Wunderground v.1.15,2013-04-12 17:50:00,
2013-04-12 12:55:00,42.0,39.0,29.70,West,267,9.0,9.0,89,0.00,,,0.01,Wunderground v.1.15,2013-04-12 17:55:00,
2013-04-12 13:01:00,42.1,38.2,29.71,SW,234,8.0,14.0,86,0.00,,,0.01,Wunderground v.1.15,2013-04-12 18:01:00,
2013-04-12 13:07:00,42.4,39.4,29.71,WSW,252,9.0,14.0,89,0.00,,,0.01,Wunderground v.1.15,2013-04-12 18:07:00,
2013-04-12 13:13:00,42.8,39.5,29.71,SW,229,8.0,10.0,88,0.00,,,0.01,Wunderground v.1.15,2013-04-12 18:13:00,
2013-04-12 13:18:00,43.1,39.8,29.71,SW,228,8.0,10.0,88,0.00,,,0.01,Wunderground v.1.15,2013-04-12 18:18:00,
2013-04-12 13:25:00,43.1,39.2,29.71,West,261,8.0,13.0,86,0.00,,,0.02,Wunderground v.1.15,2013-04-12 18:25:00,
2013-04-12 14:27:00,42.2,38.3,29.74,West,267,10.0,12.0,86,0.00,,,0.02,Wunderground v.1.15,2013-04-12 19:27:00,
2013-04-12 14:28:00,42.2,38.3,29.74,WSW,238,10.0,12.0,86,0.00,,,0.02,Wunderground v.1.15,2013-04-12 19:28:00,
2013-04-12 14:31:00,42.0,38.1,29.73,WSW,252,11.0,12.0,86,0.00,,,0.02,Wunderground v.1.15,2013-04-12 19:31:00,
2013-04-12 14:33:00,42.0,38.4,29.74,SW,215,11.0,12.0,87,0.00,,,0.02,Wunderground v.1.15,2013-04-12 19:33:00,
2013-04-12 14:39:00,42.1,38.5,29.74,West,262,9.0,12.0,87,0.00,,,0.02,Wunderground v.1.15,2013-04-12 19:39:00,
2013-04-12 14:44:00,42.4,38.8,29.74,WSW,246,9.0,9.0,87,0.00,,,0.02,Wunderground v.1.15,2013-04-12 19:44:00,
2013-04-12 14:49:00,42.9,39.0,29.74,WSW,250,10.0,13.0,86,0.00,,,0.02,Wunderground v.1.15,2013-04-12 19:49:00,
2013-04-12 14:54:00,42.8,38.6,29.74,WNW,289,10.0,10.0,85,0.00,,,0.02,Wunderground v.1.15,2013-04-12 19:54:00,
2013-04-12 15:00:00,42.5,38.3,29.75,SW,225,9.0,12.0,85,0.00,,,0.02,Wunderground v.1.15,2013-04-12 20:00:00,
2013-04-12 15:05:00,42.5,38.3,29.75,WSW,246,9.0,14.0,85,0.00,,,0.02,Wunderground v.1.15,2013-04-12 20:05:00,
2013-04-12 15:11:00,42.5,38.3,29.75,WSW,254,9.0,13.0,85,0.00,,,0.02,Wunderground v.1.15,2013-04-12 20:11:00,
2013-04-12 15:16:00,42.5,38.3,29.75,WSW,248,10.0,14.0,85,0.00,,,0.02,Wunderground v.1.15,2013-04-12 20:16:00,
2013-04-12 15:22:00,42.5,38.3,29.75,West,259,9.0,9.0,85,0.00,,,0.02,Wunderground v.1.15,2013-04-12 20:22:00,
2013-04-12 15:27:00,42.5,38.3,29.75,WNW,282,9.0,13.0,85,0.00,,,0.02,Wunderground v.1.15,2013-04-12 20:27:00,
2013-04-12 15:33:00,42.8,38.6,29.76,WSW,238,8.0,8.0,85,0.00,,,0.02,Wunderground v.1.15,2013-04-12 20:33:00,
2013-04-12 15:38:00,43.1,38.9,29.76,West,273,7.0,10.0,85,0.00,,,0.02,Wunderground v.1.15,2013-04-12 20:38:00,
2013-04-12 15:43:00,43.2,39.0,29.76,WNW,287,6.0,11.0,85,0.00,,,0.02,Wunderground v.1.15,2013-04-12 20:43:00,
2013-04-12 15:49:00,42.9,38.4,29.77,WSW,244,8.0,11.0,84,0.00,,,0.02,Wunderground v.1.15,2013-04-12 20:49:00,
2013-04-12 15:54:00,42.8,38.3,29.77,West,267,9.0,11.0,84,0.00,,,0.02,Wunderground v.1.15,2013-04-12 20:54:00,
2013-04-12 16:00:00,42.7,38.2,29.77,WSW,244,9.0,14.0,84,0.00,,,0.02,Wunderground v.1.15,2013-04-12 21:00:00,
2013-04-12 16:05:00,42.7,38.2,29.77,WSW,257,8.0,14.0,84,0.00,,,0.02,Wunderground v.1.15,2013-04-12 21:05:00,
2013-04-12 16:10:00,42.6,37.5,29.78,WSW,250,8.0,10.0,82,0.00,,,0.02,Wunderground v.1.15,2013-04-12 21:10:00,
2013-04-12 16:15:00,42.6,37.8,29.78,WSW,252,7.0,10.0,83,0.00,,,0.02,Wunderground v.1.15,2013-04-12 21:15:00,
2013-04-12 16:20:00,42.7,37.6,29.78,WSW,253,6.0,6.0,82,0.00,,,0.02,Wunderground v.1.15,2013-04-12 21:20:00,
2013-04-12 16:25:00,43.1,38.3,29.78,West,267,6.0,11.0,83,0.00,,,0.02,Wunderground v.1.15,2013-04-12 21:25:00,
2013-04-12 16:31:00,43.1,37.3,29.78,West,259,7.0,7.0,80,0.00,,,0.02,Wunderground v.1.15,2013-04-12 21:31:00,
2013-04-12 16:36:00,43.0,37.3,29.79,WSW,237,7.0,9.0,80,0.00,,,0.02,Wunderground v.1.15,2013-04-12 21:36:00,